sensor_id;sensor_type;location;lat;lon;timestamp;P1;durP1;ratioP1;P2;durP2;ratioP2
28960;SDS011;16068;42.896;20.868;2024-01-25T00:00:10;46.10;;;19.73;;
28960;SDS011;16068;42.896;20.868;2024-01-25T00:02:57;36.25;;;16.63;;
28960;SDS011;16068;42.896;20.868;2024-01-25T00:05:43;39.55;;;17.05;;
28960;SDS011;16068;42.896;20.868;2024-01-25T00:08:29;40.80;;;17.42;;
28960;SDS011;16068;42.896;20.868;2024-01-25T00:11:15;39.08;;;18.58;;
28960;SDS011;16068;42.896;20.868;2024-01-25T00:14:01;42.42;;;19.52;;
28960;SDS011;16068;42.896;20.868;2024-01-25T00:16:48;45.03;;;19.67;;
28960;SDS011;16068;42.896;20.868;2024-01-25T00:19:35;39.55;;;19.30;;
28960;SDS011;16068;42.896;20.868;2024-01-25T00:22:21;43.97;;;19.70;;
28960;SDS011;16068;42.896;20.868;2024-01-25T00:25:07;46.13;;;22.27;;
28960;SDS011;16068;42.896;20.868;2024-01-25T00:27:54;42.00;;;19.85;;
28960;SDS011;16068;42.896;20.868;2024-01-25T00:30:41;28.98;;;14.13;;
28960;SDS011;16068;42.896;20.868;2024-01-25T00:33:27;25.70;;;11.75;;
28960;SDS011;16068;42.896;20.868;2024-01-25T00:36:14;23.70;;;10.88;;
28960;SDS011;16068;42.896;20.868;2024-01-25T00:39:01;23.52;;;11.50;;
28960;SDS011;16068;42.896;20.868;2024-01-25T00:41:50;17.33;;;8.18;;
28960;SDS011;16068;42.896;20.868;2024-01-25T00:44:36;27.00;;;11.38;;
28960;SDS011;16068;42.896;20.868;2024-01-25T00:47:25;24.50;;;10.70;;
28960;SDS011;16068;42.896;20.868;2024-01-25T00:50:11;21.92;;;8.77;;
28960;SDS011;16068;42.896;20.868;2024-01-25T00:52:58;25.08;;;11.35;;
28960;SDS011;16068;42.896;20.868;2024-01-25T00:55:44;30.63;;;13.13;;
28960;SDS011;16068;42.896;20.868;2024-01-25T00:58:32;23.25;;;12.73;;
28960;SDS011;16068;42.896;20.868;2024-01-25T01:01:18;26.30;;;11.23;;
28960;SDS011;16068;42.896;20.868;2024-01-25T01:04:18;27.98;;;12.25;;
28960;SDS011;16068;42.896;20.868;2024-01-25T01:07:05;21.67;;;10.38;;
28960;SDS011;16068;42.896;20.868;2024-01-25T01:09:51;39.13;;;18.75;;
28960;SDS011;16068;42.896;20.868;2024-01-25T01:12:37;36.00;;;17.15;;
28960;SDS011;16068;42.896;20.868;2024-01-25T01:15:25;37.95;;;17.90;;
28960;SDS011;16068;42.896;20.868;2024-01-25T01:18:11;40.97;;;19.17;;
28960;SDS011;16068;42.896;20.868;2024-01-25T01:20:57;36.88;;;18.02;;
28960;SDS011;16068;42.896;20.868;2024-01-25T01:23:43;33.03;;;14.68;;
28960;SDS011;16068;42.896;20.868;2024-01-25T01:26:29;37.90;;;16.02;;
28960;SDS011;16068;42.896;20.868;2024-01-25T01:29:16;36.83;;;15.88;;
28960;SDS011;16068;42.896;20.868;2024-01-25T01:32:03;31.35;;;13.90;;
28960;SDS011;16068;42.896;20.868;2024-01-25T01:34:49;27.98;;;11.80;;
28960;SDS011;16068;42.896;20.868;2024-01-25T01:37:36;29.38;;;13.95;;
28960;SDS011;16068;42.896;20.868;2024-01-25T01:40:22;28.33;;;13.23;;
28960;SDS011;16068;42.896;20.868;2024-01-25T01:43:08;33.97;;;15.10;;
28960;SDS011;16068;42.896;20.868;2024-01-25T01:46:09;31.90;;;16.65;;
28960;SDS011;16068;42.896;20.868;2024-01-25T01:48:59;37.05;;;16.30;;
28960;SDS011;16068;42.896;20.868;2024-01-25T01:51:45;34.00;;;14.52;;
28960;SDS011;16068;42.896;20.868;2024-01-25T01:54:31;26.00;;;11.82;;
28960;SDS011;16068;42.896;20.868;2024-01-25T01:57:18;27.88;;;12.00;;
28960;SDS011;16068;42.896;20.868;2024-01-25T02:00:06;18.30;;;10.05;;
28960;SDS011;16068;42.896;20.868;2024-01-25T02:03:02;25.33;;;11.88;;
28960;SDS011;16068;42.896;20.868;2024-01-25T02:05:49;25.45;;;11.90;;
28960;SDS011;16068;42.896;20.868;2024-01-25T02:08:36;20.63;;;10.48;;
28960;SDS011;16068;42.896;20.868;2024-01-25T02:11:22;25.33;;;9.40;;
28960;SDS011;16068;42.896;20.868;2024-01-25T02:14:08;17.95;;;7.07;;
28960;SDS011;16068;42.896;20.868;2024-01-25T02:16:57;21.70;;;8.27;;
28960;SDS011;16068;42.896;20.868;2024-01-25T02:19:43;18.58;;;8.00;;
28960;SDS011;16068;42.896;20.868;2024-01-25T02:22:29;12.60;;;5.68;;
28960;SDS011;16068;42.896;20.868;2024-01-25T02:25:15;10.98;;;5.10;;
28960;SDS011;16068;42.896;20.868;2024-01-25T02:28:02;14.38;;;5.38;;
28960;SDS011;16068;42.896;20.868;2024-01-25T02:30:48;6.70;;;4.15;;
28960;SDS011;16068;42.896;20.868;2024-01-25T02:33:36;11.50;;;4.93;;
28960;SDS011;16068;42.896;20.868;2024-01-25T02:36:22;9.57;;;3.85;;
28960;SDS011;16068;42.896;20.868;2024-01-25T02:39:09;14.35;;;5.57;;
28960;SDS011;16068;42.896;20.868;2024-01-25T02:41:56;24.90;;;9.85;;
28960;SDS011;16068;42.896;20.868;2024-01-25T02:44:41;27.35;;;11.27;;
28960;SDS011;16068;42.896;20.868;2024-01-25T02:47:28;27.33;;;12.93;;
28960;SDS011;16068;42.896;20.868;2024-01-25T02:50:14;33.78;;;15.00;;
28960;SDS011;16068;42.896;20.868;2024-01-25T02:53:01;32.50;;;15.23;;
28960;SDS011;16068;42.896;20.868;2024-01-25T02:55:47;45.15;;;21.20;;
28960;SDS011;16068;42.896;20.868;2024-01-25T02:58:34;36.70;;;14.30;;
28960;SDS011;16068;42.896;20.868;2024-01-25T03:01:20;13.88;;;6.45;;
28960;SDS011;16068;42.896;20.868;2024-01-25T03:04:08;10.40;;;5.45;;
28960;SDS011;16068;42.896;20.868;2024-01-25T03:06:54;10.77;;;5.00;;
28960;SDS011;16068;42.896;20.868;2024-01-25T03:09:40;10.98;;;5.22;;
28960;SDS011;16068;42.896;20.868;2024-01-25T03:12:26;11.57;;;4.78;;
28960;SDS011;16068;42.896;20.868;2024-01-25T03:15:12;11.43;;;5.20;;
28960;SDS011;16068;42.896;20.868;2024-01-25T03:17:58;16.35;;;7.00;;
28960;SDS011;16068;42.896;20.868;2024-01-25T03:20:45;23.02;;;9.40;;
28960;SDS011;16068;42.896;20.868;2024-01-25T03:23:31;20.55;;;9.45;;
28960;SDS011;16068;42.896;20.868;2024-01-25T03:26:17;17.13;;;7.43;;
28960;SDS011;16068;42.896;20.868;2024-01-25T03:29:03;14.18;;;6.32;;
28960;SDS011;16068;42.896;20.868;2024-01-25T03:31:49;18.40;;;6.32;;
28960;SDS011;16068;42.896;20.868;2024-01-25T03:34:36;23.42;;;7.60;;
28960;SDS011;16068;42.896;20.868;2024-01-25T03:37:22;21.92;;;11.13;;
28960;SDS011;16068;42.896;20.868;2024-01-25T03:40:08;22.58;;;11.10;;
28960;SDS011;16068;42.896;20.868;2024-01-25T03:42:54;14.45;;;6.13;;
28960;SDS011;16068;42.896;20.868;2024-01-25T03:46:00;9.90;;;4.45;;
28960;SDS011;16068;42.896;20.868;2024-01-25T03:48:48;8.95;;;4.50;;
28960;SDS011;16068;42.896;20.868;2024-01-25T03:51:35;9.90;;;4.47;;
28960;SDS011;16068;42.896;20.868;2024-01-25T03:54:21;12.55;;;4.50;;
28960;SDS011;16068;42.896;20.868;2024-01-25T03:57:07;6.90;;;4.05;;
28960;SDS011;16068;42.896;20.868;2024-01-25T03:59:53;7.15;;;3.72;;
28960;SDS011;16068;42.896;20.868;2024-01-25T04:02:39;8.38;;;4.22;;
28960;SDS011;16068;42.896;20.868;2024-01-25T04:05:25;9.18;;;3.70;;
28960;SDS011;16068;42.896;20.868;2024-01-25T04:08:12;14.13;;;6.43;;
28960;SDS011;16068;42.896;20.868;2024-01-25T04:10:58;21.58;;;10.50;;
28960;SDS011;16068;42.896;20.868;2024-01-25T04:13:45;17.65;;;10.05;;
28960;SDS011;16068;42.896;20.868;2024-01-25T04:16:31;21.35;;;9.85;;
28960;SDS011;16068;42.896;20.868;2024-01-25T04:19:18;16.30;;;8.02;;
28960;SDS011;16068;42.896;20.868;2024-01-25T04:22:04;18.33;;;9.10;;
28960;SDS011;16068;42.896;20.868;2024-01-25T04:24:51;22.85;;;11.65;;
28960;SDS011;16068;42.896;20.868;2024-01-25T04:27:39;29.50;;;13.90;;
28960;SDS011;16068;42.896;20.868;2024-01-25T04:30:26;28.55;;;13.82;;
28960;SDS011;16068;42.896;20.868;2024-01-25T04:33:12;21.67;;;11.57;;
28960;SDS011;16068;42.896;20.868;2024-01-25T04:35:59;23.30;;;11.02;;
28960;SDS011;16068;42.896;20.868;2024-01-25T04:38:46;17.33;;;9.70;;
28960;SDS011;16068;42.896;20.868;2024-01-25T04:41:33;20.35;;;10.23;;
28960;SDS011;16068;42.896;20.868;2024-01-25T04:44:19;20.88;;;10.98;;
28960;SDS011;16068;42.896;20.868;2024-01-25T04:47:09;21.33;;;11.57;;
28960;SDS011;16068;42.896;20.868;2024-01-25T04:49:55;15.70;;;6.78;;
28960;SDS011;16068;42.896;20.868;2024-01-25T04:52:43;14.25;;;4.82;;
28960;SDS011;16068;42.896;20.868;2024-01-25T04:55:29;10.35;;;4.85;;
28960;SDS011;16068;42.896;20.868;2024-01-25T04:58:30;8.27;;;4.57;;
28960;SDS011;16068;42.896;20.868;2024-01-25T05:01:18;12.30;;;4.80;;
28960;SDS011;16068;42.896;20.868;2024-01-25T05:04:04;9.35;;;4.20;;
28960;SDS011;16068;42.896;20.868;2024-01-25T05:06:53;9.48;;;5.05;;
28960;SDS011;16068;42.896;20.868;2024-01-25T05:09:40;9.05;;;4.95;;
28960;SDS011;16068;42.896;20.868;2024-01-25T05:12:26;18.00;;;6.53;;
28960;SDS011;16068;42.896;20.868;2024-01-25T05:15:12;9.20;;;4.97;;
28960;SDS011;16068;42.896;20.868;2024-01-25T05:17:59;12.50;;;6.50;;
28960;SDS011;16068;42.896;20.868;2024-01-25T05:20:45;21.17;;;8.93;;
28960;SDS011;16068;42.896;20.868;2024-01-25T05:23:31;41.95;;;11.95;;
28960;SDS011;16068;42.896;20.868;2024-01-25T05:26:17;12.40;;;6.45;;
28960;SDS011;16068;42.896;20.868;2024-01-25T05:29:03;18.05;;;7.05;;
28960;SDS011;16068;42.896;20.868;2024-01-25T05:31:49;15.80;;;6.57;;
28960;SDS011;16068;42.896;20.868;2024-01-25T05:34:35;15.80;;;6.53;;
28960;SDS011;16068;42.896;20.868;2024-01-25T05:37:21;13.63;;;6.57;;
28960;SDS011;16068;42.896;20.868;2024-01-25T05:40:08;17.48;;;6.20;;
28960;SDS011;16068;42.896;20.868;2024-01-25T05:42:56;12.95;;;5.82;;
28960;SDS011;16068;42.896;20.868;2024-01-25T05:45:42;10.90;;;5.63;;
28960;SDS011;16068;42.896;20.868;2024-01-25T05:48:29;10.32;;;4.90;;
28960;SDS011;16068;42.896;20.868;2024-01-25T05:51:15;11.82;;;5.93;;
28960;SDS011;16068;42.896;20.868;2024-01-25T05:54:02;16.20;;;6.95;;
28960;SDS011;16068;42.896;20.868;2024-01-25T05:56:49;16.20;;;6.88;;
28960;SDS011;16068;42.896;20.868;2024-01-25T05:59:37;12.40;;;6.22;;
28960;SDS011;16068;42.896;20.868;2024-01-25T06:02:23;21.48;;;8.00;;
28960;SDS011;16068;42.896;20.868;2024-01-25T06:05:14;15.50;;;6.50;;
28960;SDS011;16068;42.896;20.868;2024-01-25T06:08:00;17.90;;;7.13;;
28960;SDS011;16068;42.896;20.868;2024-01-25T06:10:49;25.60;;;7.45;;
28960;SDS011;16068;42.896;20.868;2024-01-25T06:13:35;18.98;;;7.90;;
28960;SDS011;16068;42.896;20.868;2024-01-25T06:16:21;33.40;;;9.93;;
28960;SDS011;16068;42.896;20.868;2024-01-25T06:19:09;12.95;;;7.00;;
28960;SDS011;16068;42.896;20.868;2024-01-25T06:21:55;25.35;;;8.15;;
28960;SDS011;16068;42.896;20.868;2024-01-25T06:24:42;26.77;;;11.68;;
28960;SDS011;16068;42.896;20.868;2024-01-25T06:27:29;29.35;;;13.70;;
28960;SDS011;16068;42.896;20.868;2024-01-25T06:30:15;24.67;;;12.52;;
28960;SDS011;16068;42.896;20.868;2024-01-25T06:33:02;27.40;;;13.55;;
28960;SDS011;16068;42.896;20.868;2024-01-25T06:35:52;29.83;;;12.98;;
28960;SDS011;16068;42.896;20.868;2024-01-25T06:38:39;29.55;;;14.38;;
28960;SDS011;16068;42.896;20.868;2024-01-25T06:41:25;33.05;;;14.18;;
28960;SDS011;16068;42.896;20.868;2024-01-25T06:44:11;33.00;;;15.68;;
28960;SDS011;16068;42.896;20.868;2024-01-25T06:47:00;29.77;;;14.27;;
28960;SDS011;16068;42.896;20.868;2024-01-25T06:49:47;41.08;;;17.08;;
28960;SDS011;16068;42.896;20.868;2024-01-25T06:52:38;44.65;;;20.70;;
28960;SDS011;16068;42.896;20.868;2024-01-25T06:55:24;45.17;;;20.65;;
28960;SDS011;16068;42.896;20.868;2024-01-25T06:58:14;32.13;;;15.68;;
28960;SDS011;16068;42.896;20.868;2024-01-25T07:01:01;24.45;;;10.25;;
28960;SDS011;16068;42.896;20.868;2024-01-25T07:03:49;20.55;;;10.77;;
28960;SDS011;16068;42.896;20.868;2024-01-25T07:06:39;12.50;;;4.85;;
28960;SDS011;16068;42.896;20.868;2024-01-25T07:09:29;10.90;;;4.90;;
28960;SDS011;16068;42.896;20.868;2024-01-25T07:12:15;11.52;;;5.18;;
28960;SDS011;16068;42.896;20.868;2024-01-25T07:15:03;8.52;;;4.57;;
28960;SDS011;16068;42.896;20.868;2024-01-25T07:17:50;7.88;;;4.18;;
28960;SDS011;16068;42.896;20.868;2024-01-25T07:20:36;8.90;;;3.80;;
28960;SDS011;16068;42.896;20.868;2024-01-25T07:23:22;8.50;;;3.70;;
28960;SDS011;16068;42.896;20.868;2024-01-25T07:26:09;7.43;;;3.55;;
28960;SDS011;16068;42.896;20.868;2024-01-25T07:28:55;10.88;;;4.72;;
28960;SDS011;16068;42.896;20.868;2024-01-25T07:31:50;9.80;;;4.32;;
28960;SDS011;16068;42.896;20.868;2024-01-25T07:34:37;8.65;;;3.70;;
28960;SDS011;16068;42.896;20.868;2024-01-25T07:37:27;8.55;;;3.92;;
28960;SDS011;16068;42.896;20.868;2024-01-25T07:40:13;7.05;;;3.75;;
28960;SDS011;16068;42.896;20.868;2024-01-25T07:42:59;10.05;;;4.28;;
28960;SDS011;16068;42.896;20.868;2024-01-25T07:45:55;12.18;;;6.07;;
28960;SDS011;16068;42.896;20.868;2024-01-25T07:48:41;10.68;;;4.40;;
28960;SDS011;16068;42.896;20.868;2024-01-25T07:51:31;7.32;;;3.40;;
28960;SDS011;16068;42.896;20.868;2024-01-25T07:54:17;7.03;;;2.95;;
28960;SDS011;16068;42.896;20.868;2024-01-25T07:57:16;7.80;;;3.50;;
28960;SDS011;16068;42.896;20.868;2024-01-25T08:00:02;5.65;;;3.03;;
28960;SDS011;16068;42.896;20.868;2024-01-25T08:02:56;7.30;;;3.47;;
28960;SDS011;16068;42.896;20.868;2024-01-25T08:05:42;9.48;;;4.35;;
28960;SDS011;16068;42.896;20.868;2024-01-25T08:08:55;9.60;;;4.53;;
28960;SDS011;16068;42.896;20.868;2024-01-25T08:11:41;6.53;;;3.42;;
28960;SDS011;16068;42.896;20.868;2024-01-25T08:14:27;6.43;;;3.72;;
28960;SDS011;16068;42.896;20.868;2024-01-25T08:17:15;7.03;;;3.42;;
28960;SDS011;16068;42.896;20.868;2024-01-25T08:20:01;6.18;;;3.00;;
28960;SDS011;16068;42.896;20.868;2024-01-25T08:22:48;6.05;;;3.60;;
28960;SDS011;16068;42.896;20.868;2024-01-25T08:25:34;8.15;;;3.30;;
28960;SDS011;16068;42.896;20.868;2024-01-25T08:28:20;6.28;;;3.67;;
28960;SDS011;16068;42.896;20.868;2024-01-25T08:31:07;9.32;;;3.58;;
28960;SDS011;16068;42.896;20.868;2024-01-25T08:33:54;7.20;;;3.90;;
28960;SDS011;16068;42.896;20.868;2024-01-25T08:36:40;8.70;;;3.75;;
28960;SDS011;16068;42.896;20.868;2024-01-25T08:39:26;8.80;;;3.30;;
28960;SDS011;16068;42.896;20.868;2024-01-25T08:42:13;9.55;;;3.97;;
28960;SDS011;16068;42.896;20.868;2024-01-25T08:44:59;6.78;;;3.53;;
28960;SDS011;16068;42.896;20.868;2024-01-25T08:47:45;9.60;;;3.90;;
28960;SDS011;16068;42.896;20.868;2024-01-25T08:50:31;6.03;;;4.07;;
28960;SDS011;16068;42.896;20.868;2024-01-25T08:53:19;6.97;;;3.83;;
28960;SDS011;16068;42.896;20.868;2024-01-25T08:56:08;7.78;;;4.10;;
28960;SDS011;16068;42.896;20.868;2024-01-25T08:58:54;8.73;;;4.57;;
28960;SDS011;16068;42.896;20.868;2024-01-25T09:01:40;11.40;;;5.45;;
28960;SDS011;16068;42.896;20.868;2024-01-25T09:04:26;8.00;;;4.32;;
28960;SDS011;16068;42.896;20.868;2024-01-25T09:07:13;9.23;;;3.60;;
28960;SDS011;16068;42.896;20.868;2024-01-25T09:09:59;7.70;;;3.85;;
28960;SDS011;16068;42.896;20.868;2024-01-25T09:12:45;6.72;;;3.40;;
28960;SDS011;16068;42.896;20.868;2024-01-25T09:15:31;6.90;;;3.40;;
28960;SDS011;16068;42.896;20.868;2024-01-25T09:18:17;9.75;;;4.50;;
28960;SDS011;16068;42.896;20.868;2024-01-25T09:21:05;5.88;;;3.40;;
28960;SDS011;16068;42.896;20.868;2024-01-25T09:23:51;6.88;;;3.95;;
28960;SDS011;16068;42.896;20.868;2024-01-25T09:26:37;10.65;;;4.13;;
28960;SDS011;16068;42.896;20.868;2024-01-25T09:29:23;7.18;;;3.63;;
28960;SDS011;16068;42.896;20.868;2024-01-25T09:32:10;10.73;;;4.47;;
28960;SDS011;16068;42.896;20.868;2024-01-25T09:34:55;7.65;;;3.70;;
28960;SDS011;16068;42.896;20.868;2024-01-25T09:37:43;10.40;;;4.13;;
28960;SDS011;16068;42.896;20.868;2024-01-25T09:40:29;6.80;;;3.13;;
28960;SDS011;16068;42.896;20.868;2024-01-25T09:43:15;9.65;;;4.15;;
28960;SDS011;16068;42.896;20.868;2024-01-25T09:46:02;11.98;;;5.65;;
28960;SDS011;16068;42.896;20.868;2024-01-25T09:48:49;6.13;;;2.47;;
28960;SDS011;16068;42.896;20.868;2024-01-25T09:51:37;10.35;;;4.55;;
28960;SDS011;16068;42.896;20.868;2024-01-25T09:54:24;9.07;;;3.38;;
28960;SDS011;16068;42.896;20.868;2024-01-25T09:57:13;6.30;;;2.72;;
28960;SDS011;16068;42.896;20.868;2024-01-25T10:00:03;7.10;;;3.20;;
28960;SDS011;16068;42.896;20.868;2024-01-25T10:02:52;6.75;;;2.75;;
28960;SDS011;16068;42.896;20.868;2024-01-25T10:05:38;9.88;;;3.95;;
28960;SDS011;16068;42.896;20.868;2024-01-25T10:08:25;6.40;;;2.60;;
28960;SDS011;16068;42.896;20.868;2024-01-25T10:11:11;7.20;;;3.10;;
28960;SDS011;16068;42.896;20.868;2024-01-25T10:13:57;11.77;;;4.65;;
28960;SDS011;16068;42.896;20.868;2024-01-25T10:16:46;9.68;;;4.00;;
28960;SDS011;16068;42.896;20.868;2024-01-25T10:19:32;25.23;;;7.68;;
28960;SDS011;16068;42.896;20.868;2024-01-25T10:22:19;9.23;;;4.35;;
28960;SDS011;16068;42.896;20.868;2024-01-25T10:25:11;180.00;;;13.40;;
28960;SDS011;16068;42.896;20.868;2024-01-25T10:27:59;10.73;;;4.70;;
28960;SDS011;16068;42.896;20.868;2024-01-25T10:30:45;43.10;;;5.63;;
28960;SDS011;16068;42.896;20.868;2024-01-25T10:33:35;9.30;;;4.28;;
28960;SDS011;16068;42.896;20.868;2024-01-25T10:36:24;9.27;;;4.18;;
28960;SDS011;16068;42.896;20.868;2024-01-25T10:39:12;11.30;;;3.67;;
28960;SDS011;16068;42.896;20.868;2024-01-25T10:45:10;7.05;;;4.05;;
28960;SDS011;16068;42.896;20.868;2024-01-25T10:47:59;11.75;;;4.80;;
28960;SDS011;16068;42.896;20.868;2024-01-25T10:50:46;9.65;;;4.55;;
28960;SDS011;16068;42.896;20.868;2024-01-25T10:53:33;10.20;;;4.43;;
28960;SDS011;16068;42.896;20.868;2024-01-25T10:56:20;8.82;;;4.47;;
28960;SDS011;16068;42.896;20.868;2024-01-25T10:59:06;10.32;;;4.20;;
28960;SDS011;16068;42.896;20.868;2024-01-25T11:01:54;9.80;;;4.50;;
28960;SDS011;16068;42.896;20.868;2024-01-25T11:04:40;9.95;;;4.38;;
28960;SDS011;16068;42.896;20.868;2024-01-25T11:07:26;10.38;;;4.38;;
28960;SDS011;16068;42.896;20.868;2024-01-25T11:10:23;11.55;;;5.30;;
28960;SDS011;16068;42.896;20.868;2024-01-25T11:13:13;7.50;;;3.63;;
28960;SDS011;16068;42.896;20.868;2024-01-25T11:19:00;9.55;;;4.43;;
28960;SDS011;16068;42.896;20.868;2024-01-25T11:21:52;10.93;;;5.43;;
28960;SDS011;16068;42.896;20.868;2024-01-25T11:24:39;10.88;;;4.75;;
28960;SDS011;16068;42.896;20.868;2024-01-25T11:27:25;12.25;;;5.97;;
28960;SDS011;16068;42.896;20.868;2024-01-25T11:30:11;10.48;;;4.30;;
28960;SDS011;16068;42.896;20.868;2024-01-25T11:32:59;11.98;;;4.70;;
28960;SDS011;16068;42.896;20.868;2024-01-25T11:35:53;9.05;;;4.45;;
28960;SDS011;16068;42.896;20.868;2024-01-25T11:38:40;9.75;;;4.43;;
28960;SDS011;16068;42.896;20.868;2024-01-25T11:41:26;12.75;;;4.85;;
28960;SDS011;16068;42.896;20.868;2024-01-25T11:44:12;11.40;;;5.13;;
28960;SDS011;16068;42.896;20.868;2024-01-25T11:46:59;8.40;;;4.10;;
28960;SDS011;16068;42.896;20.868;2024-01-25T11:49:45;9.18;;;4.50;;
28960;SDS011;16068;42.896;20.868;2024-01-25T11:52:31;12.80;;;4.60;;
28960;SDS011;16068;42.896;20.868;2024-01-25T11:55:19;12.32;;;4.18;;
28960;SDS011;16068;42.896;20.868;2024-01-25T11:58:06;9.30;;;4.13;;
28960;SDS011;16068;42.896;20.868;2024-01-25T12:00:52;12.93;;;6.60;;
28960;SDS011;16068;42.896;20.868;2024-01-25T12:03:40;12.32;;;5.72;;
28960;SDS011;16068;42.896;20.868;2024-01-25T12:06:26;18.40;;;8.02;;
28960;SDS011;16068;42.896;20.868;2024-01-25T12:09:14;7.68;;;3.45;;
28960;SDS011;16068;42.896;20.868;2024-01-25T12:12:01;6.20;;;2.88;;
28960;SDS011;16068;42.896;20.868;2024-01-25T12:14:48;8.57;;;4.32;;
28960;SDS011;16068;42.896;20.868;2024-01-25T12:17:34;7.68;;;3.40;;
28960;SDS011;16068;42.896;20.868;2024-01-25T12:20:24;7.15;;;2.53;;
28960;SDS011;16068;42.896;20.868;2024-01-25T12:23:12;6.45;;;2.42;;
28960;SDS011;16068;42.896;20.868;2024-01-25T12:26:00;7.65;;;3.40;;
28960;SDS011;16068;42.896;20.868;2024-01-25T12:28:47;12.43;;;3.90;;
28960;SDS011;16068;42.896;20.868;2024-01-25T12:31:35;7.85;;;3.13;;
28960;SDS011;16068;42.896;20.868;2024-01-25T12:34:22;5.38;;;2.63;;
28960;SDS011;16068;42.896;20.868;2024-01-25T12:37:08;7.55;;;3.40;;
28960;SDS011;16068;42.896;20.868;2024-01-25T12:39:54;6.10;;;2.88;;
28960;SDS011;16068;42.896;20.868;2024-01-25T12:42:40;4.93;;;2.67;;
28960;SDS011;16068;42.896;20.868;2024-01-25T12:45:26;6.13;;;3.15;;
28960;SDS011;16068;42.896;20.868;2024-01-25T12:48:13;5.28;;;2.80;;
28960;SDS011;16068;42.896;20.868;2024-01-25T12:50:59;5.28;;;2.80;;
28960;SDS011;16068;42.896;20.868;2024-01-25T12:53:45;6.30;;;3.13;;
28960;SDS011;16068;42.896;20.868;2024-01-25T12:56:31;6.60;;;3.58;;
28960;SDS011;16068;42.896;20.868;2024-01-25T12:59:17;5.53;;;2.80;;
28960;SDS011;16068;42.896;20.868;2024-01-25T13:02:07;6.40;;;3.80;;
28960;SDS011;16068;42.896;20.868;2024-01-25T13:04:54;8.35;;;3.20;;
28960;SDS011;16068;42.896;20.868;2024-01-25T13:07:45;7.03;;;3.53;;
28960;SDS011;16068;42.896;20.868;2024-01-25T13:10:30;15.30;;;4.90;;
28960;SDS011;16068;42.896;20.868;2024-01-25T13:13:18;9.77;;;3.55;;
28960;SDS011;16068;42.896;20.868;2024-01-25T13:16:04;14.85;;;5.07;;
28960;SDS011;16068;42.896;20.868;2024-01-25T13:18:51;11.45;;;4.60;;
28960;SDS011;16068;42.896;20.868;2024-01-25T13:21:38;9.77;;;3.78;;
28960;SDS011;16068;42.896;20.868;2024-01-25T13:24:24;11.23;;;3.63;;
28960;SDS011;16068;42.896;20.868;2024-01-25T13:27:10;7.45;;;4.15;;
28960;SDS011;16068;42.896;20.868;2024-01-25T13:29:56;7.68;;;2.88;;
28960;SDS011;16068;42.896;20.868;2024-01-25T13:32:44;14.02;;;6.63;;
28960;SDS011;16068;42.896;20.868;2024-01-25T13:35:31;10.70;;;3.97;;
28960;SDS011;16068;42.896;20.868;2024-01-25T13:38:18;6.93;;;3.72;;
28960;SDS011;16068;42.896;20.868;2024-01-25T13:41:04;5.75;;;3.40;;
28960;SDS011;16068;42.896;20.868;2024-01-25T13:43:51;5.68;;;2.60;;
28960;SDS011;16068;42.896;20.868;2024-01-25T13:46:37;4.40;;;2.58;;
28960;SDS011;16068;42.896;20.868;2024-01-25T13:49:23;7.53;;;3.70;;
28960;SDS011;16068;42.896;20.868;2024-01-25T13:52:14;6.13;;;3.03;;
28960;SDS011;16068;42.896;20.868;2024-01-25T13:55:04;6.03;;;3.00;;
28960;SDS011;16068;42.896;20.868;2024-01-25T13:57:51;4.78;;;2.67;;
28960;SDS011;16068;42.896;20.868;2024-01-25T14:00:37;5.85;;;2.92;;
28960;SDS011;16068;42.896;20.868;2024-01-25T14:03:23;5.65;;;2.78;;
28960;SDS011;16068;42.896;20.868;2024-01-25T14:06:09;6.95;;;3.10;;
28960;SDS011;16068;42.896;20.868;2024-01-25T14:08:56;8.52;;;2.55;;
28960;SDS011;16068;42.896;20.868;2024-01-25T14:11:42;5.68;;;2.50;;
28960;SDS011;16068;42.896;20.868;2024-01-25T14:14:28;4.85;;;2.90;;
28960;SDS011;16068;42.896;20.868;2024-01-25T14:17:14;4.97;;;2.40;;
28960;SDS011;16068;42.896;20.868;2024-01-25T14:20:00;5.07;;;2.72;;
28960;SDS011;16068;42.896;20.868;2024-01-25T14:22:48;18.75;;;4.47;;
28960;SDS011;16068;42.896;20.868;2024-01-25T14:25:35;8.50;;;4.25;;
28960;SDS011;16068;42.896;20.868;2024-01-25T14:28:23;9.88;;;4.82;;
28960;SDS011;16068;42.896;20.868;2024-01-25T14:31:09;12.07;;;5.22;;
28960;SDS011;16068;42.896;20.868;2024-01-25T14:33:55;11.75;;;5.50;;
28960;SDS011;16068;42.896;20.868;2024-01-25T14:36:43;8.85;;;4.53;;
28960;SDS011;16068;42.896;20.868;2024-01-25T14:39:29;5.40;;;2.83;;
28960;SDS011;16068;42.896;20.868;2024-01-25T14:42:16;9.85;;;4.47;;
28960;SDS011;16068;42.896;20.868;2024-01-25T14:45:09;6.78;;;3.88;;
28960;SDS011;16068;42.896;20.868;2024-01-25T14:47:55;7.63;;;4.25;;
28960;SDS011;16068;42.896;20.868;2024-01-25T14:50:42;7.65;;;3.97;;
28960;SDS011;16068;42.896;20.868;2024-01-25T14:53:28;8.02;;;3.60;;
28960;SDS011;16068;42.896;20.868;2024-01-25T14:56:13;6.05;;;3.65;;
28960;SDS011;16068;42.896;20.868;2024-01-25T14:58:59;9.02;;;5.68;;
28960;SDS011;16068;42.896;20.868;2024-01-25T15:01:48;11.45;;;4.95;;
28960;SDS011;16068;42.896;20.868;2024-01-25T15:04:34;6.45;;;3.92;;
28960;SDS011;16068;42.896;20.868;2024-01-25T15:07:21;7.47;;;3.58;;
28960;SDS011;16068;42.896;20.868;2024-01-25T15:10:07;7.90;;;4.25;;
28960;SDS011;16068;42.896;20.868;2024-01-25T15:12:56;5.90;;;3.78;;
28960;SDS011;16068;42.896;20.868;2024-01-25T15:15:45;11.55;;;3.90;;
28960;SDS011;16068;42.896;20.868;2024-01-25T15:18:32;8.25;;;4.63;;
28960;SDS011;16068;42.896;20.868;2024-01-25T15:21:18;7.00;;;4.75;;
28960;SDS011;16068;42.896;20.868;2024-01-25T15:24:04;8.65;;;4.85;;
28960;SDS011;16068;42.896;20.868;2024-01-25T15:26:51;7.65;;;4.78;;
28960;SDS011;16068;42.896;20.868;2024-01-25T15:29:40;10.10;;;5.50;;
28960;SDS011;16068;42.896;20.868;2024-01-25T15:32:26;9.93;;;5.57;;
28960;SDS011;16068;42.896;20.868;2024-01-25T15:35:14;15.40;;;9.18;;
28960;SDS011;16068;42.896;20.868;2024-01-25T15:38:00;24.55;;;13.20;;
28960;SDS011;16068;42.896;20.868;2024-01-25T15:40:51;22.67;;;12.30;;
28960;SDS011;16068;42.896;20.868;2024-01-25T15:43:38;26.67;;;12.63;;
28960;SDS011;16068;42.896;20.868;2024-01-25T15:46:25;18.90;;;8.63;;
28960;SDS011;16068;42.896;20.868;2024-01-25T15:49:11;31.35;;;15.85;;
28960;SDS011;16068;42.896;20.868;2024-01-25T15:51:57;39.53;;;18.20;;
28960;SDS011;16068;42.896;20.868;2024-01-25T15:54:44;27.92;;;12.68;;
28960;SDS011;16068;42.896;20.868;2024-01-25T15:57:30;25.40;;;13.75;;
28960;SDS011;16068;42.896;20.868;2024-01-25T16:00:17;54.47;;;19.63;;
28960;SDS011;16068;42.896;20.868;2024-01-25T16:03:04;48.60;;;22.55;;
28960;SDS011;16068;42.896;20.868;2024-01-25T16:05:50;32.03;;;17.75;;
28960;SDS011;16068;42.896;20.868;2024-01-25T16:08:40;37.38;;;19.02;;
28960;SDS011;16068;42.896;20.868;2024-01-25T16:11:26;26.65;;;13.13;;
28960;SDS011;16068;42.896;20.868;2024-01-25T16:14:12;35.15;;;14.68;;
28960;SDS011;16068;42.896;20.868;2024-01-25T16:16:58;69.00;;;37.28;;
28960;SDS011;16068;42.896;20.868;2024-01-25T16:19:44;56.63;;;25.13;;
28960;SDS011;16068;42.896;20.868;2024-01-25T16:22:31;31.23;;;16.33;;
28960;SDS011;16068;42.896;20.868;2024-01-25T16:25:19;25.95;;;14.68;;